sensor_id;sensor_type;location;lat;lon;timestamp;P1;durP1;ratioP1;P2;durP2;ratioP2
60038;SDS011;45916;52.734;6.544;2024-03-22T11:19:29;16.35;;;12.25;;
60038;SDS011;45916;52.734;6.544;2024-03-22T11:21:55;16.63;;;12.77;;
60038;SDS011;45916;52.734;6.544;2024-03-22T11:24:21;14.98;;;12.63;;
60038;SDS011;45916;52.734;6.544;2024-03-22T11:26:47;16.10;;;12.43;;
60038;SDS011;45916;52.734;6.544;2024-03-22T11:29:14;15.77;;;12.48;;
60038;SDS011;45916;52.734;6.544;2024-03-22T11:31:40;15.15;;;12.27;;
60038;SDS011;45916;52.734;6.544;2024-03-22T11:34:06;18.17;;;13.60;;
60038;SDS011;45916;52.734;6.544;2024-03-22T11:36:32;16.25;;;11.90;;
60038;SDS011;45916;52.734;6.544;2024-03-22T11:38:58;15.98;;;12.88;;
60038;SDS011;45916;52.734;6.544;2024-03-22T11:41:26;18.25;;;14.32;;
60038;SDS011;45916;52.734;6.544;2024-03-22T11:43:52;18.02;;;14.13;;
60038;SDS011;45916;52.734;6.544;2024-03-22T11:46:19;17.65;;;13.27;;
60038;SDS011;45916;52.734;6.544;2024-03-22T11:48:50;18.88;;;14.65;;
60038;SDS011;45916;52.734;6.544;2024-03-22T11:51:16;18.50;;;14.07;;
60038;SDS011;45916;52.734;6.544;2024-03-22T11:53:48;19.83;;;15.27;;
60038;SDS011;45916;52.734;6.544;2024-03-22T11:56:17;17.58;;;13.43;;
60038;SDS011;45916;52.734;6.544;2024-03-22T12:01:09;15.63;;;11.98;;
60038;SDS011;45916;52.734;6.544;2024-03-22T12:03:35;12.60;;;10.73;;
60038;SDS011;45916;52.734;6.544;2024-03-22T12:06:01;12.57;;;10.70;;
60038;SDS011;45916;52.734;6.544;2024-03-22T12:08:27;16.05;;;11.50;;
60038;SDS011;45916;52.734;6.544;2024-03-22T12:10:53;14.80;;;11.77;;
60038;SDS011;45916;52.734;6.544;2024-03-22T12:13:19;13.90;;;10.63;;
60038;SDS011;45916;52.734;6.544;2024-03-22T12:15:45;13.75;;;10.13;;
60038;SDS011;45916;52.734;6.544;2024-03-22T12:18:11;13.85;;;10.00;;
60038;SDS011;45916;52.734;6.544;2024-03-22T12:20:37;13.48;;;10.50;;
60038;SDS011;45916;52.734;6.544;2024-03-22T12:23:03;11.55;;;9.25;;
60038;SDS011;45916;52.734;6.544;2024-03-22T12:25:29;11.75;;;8.88;;
60038;SDS011;45916;52.734;6.544;2024-03-22T12:27:55;12.32;;;9.55;;
60038;SDS011;45916;52.734;6.544;2024-03-22T12:30:21;13.23;;;8.50;;
60038;SDS011;45916;52.734;6.544;2024-03-22T12:32:47;11.25;;;8.63;;
60038;SDS011;45916;52.734;6.544;2024-03-22T12:35:13;10.63;;;8.13;;
60038;SDS011;45916;52.734;6.544;2024-03-22T12:37:40;11.13;;;8.18;;
60038;SDS011;45916;52.734;6.544;2024-03-22T12:40:06;10.70;;;7.38;;
60038;SDS011;45916;52.734;6.544;2024-03-22T12:42:33;9.02;;;7.22;;
60038;SDS011;45916;52.734;6.544;2024-03-22T12:44:59;9.68;;;6.25;;
60038;SDS011;45916;52.734;6.544;2024-03-22T12:47:26;10.25;;;6.95;;
60038;SDS011;45916;52.734;6.544;2024-03-22T12:49:52;6.72;;;4.78;;
60038;SDS011;45916;52.734;6.544;2024-03-22T12:52:18;7.38;;;4.65;;
60038;SDS011;45916;52.734;6.544;2024-03-22T12:54:44;8.68;;;5.03;;
60038;SDS011;45916;52.734;6.544;2024-03-22T12:57:10;7.00;;;4.63;;
60038;SDS011;45916;52.734;6.544;2024-03-22T12:59:36;7.70;;;3.50;;
60038;SDS011;45916;52.734;6.544;2024-03-22T13:02:02;7.05;;;3.42;;
60038;SDS011;45916;52.734;6.544;2024-03-22T13:04:28;8.10;;;3.45;;
60038;SDS011;45916;52.734;6.544;2024-03-22T13:06:54;6.05;;;3.75;;
60038;SDS011;45916;52.734;6.544;2024-03-22T13:09:20;5.68;;;3.47;;
60038;SDS011;45916;52.734;6.544;2024-03-22T13:11:47;7.88;;;3.55;;
60038;SDS011;45916;52.734;6.544;2024-03-22T13:14:14;8.30;;;3.30;;
60038;SDS011;45916;52.734;6.544;2024-03-22T13:16:40;7.82;;;3.53;;
60038;SDS011;45916;52.734;6.544;2024-03-22T13:19:06;7.70;;;3.60;;
60038;SDS011;45916;52.734;6.544;2024-03-22T13:21:37;7.78;;;4.00;;
60038;SDS011;45916;52.734;6.544;2024-03-22T13:24:03;8.55;;;4.35;;
60038;SDS011;45916;52.734;6.544;2024-03-22T13:26:29;11.13;;;4.63;;
60038;SDS011;45916;52.734;6.544;2024-03-22T13:28:55;9.60;;;4.88;;
60038;SDS011;45916;52.734;6.544;2024-03-22T13:31:22;10.27;;;4.22;;
60038;SDS011;45916;52.734;6.544;2024-03-22T13:33:48;10.90;;;5.57;;
60038;SDS011;45916;52.734;6.544;2024-03-22T13:36:14;12.13;;;5.20;;
60038;SDS011;45916;52.734;6.544;2024-03-22T13:38:40;11.80;;;5.13;;
60038;SDS011;45916;52.734;6.544;2024-03-22T13:41:06;13.60;;;5.68;;
60038;SDS011;45916;52.734;6.544;2024-03-22T13:43:35;10.40;;;5.30;;
60038;SDS011;45916;52.734;6.544;2024-03-22T13:46:02;12.80;;;6.53;;
60038;SDS011;45916;52.734;6.544;2024-03-22T13:48:28;13.13;;;5.70;;
60038;SDS011;45916;52.734;6.544;2024-03-22T13:50:55;11.23;;;6.03;;
60038;SDS011;45916;52.734;6.544;2024-03-22T13:53:21;10.18;;;6.13;;
60038;SDS011;45916;52.734;6.544;2024-03-22T13:55:50;11.98;;;6.10;;
60038;SDS011;45916;52.734;6.544;2024-03-22T13:58:18;12.27;;;6.60;;
60038;SDS011;45916;52.734;6.544;2024-03-22T14:00:44;12.18;;;6.95;;
60038;SDS011;45916;52.734;6.544;2024-03-22T14:03:10;14.65;;;6.70;;
60038;SDS011;45916;52.734;6.544;2024-03-22T14:05:36;14.27;;;6.93;;
60038;SDS011;45916;52.734;6.544;2024-03-22T14:08:02;14.70;;;7.32;;
60038;SDS011;45916;52.734;6.544;2024-03-22T14:10:31;16.67;;;8.43;;
60038;SDS011;45916;52.734;6.544;2024-03-22T14:12:57;12.32;;;7.13;;
60038;SDS011;45916;52.734;6.544;2024-03-22T14:15:23;12.82;;;7.80;;
60038;SDS011;45916;52.734;6.544;2024-03-22T14:17:51;14.88;;;8.60;;
60038;SDS011;45916;52.734;6.544;2024-03-22T14:20:17;15.40;;;9.55;;
60038;SDS011;45916;52.734;6.544;2024-03-22T14:22:44;18.27;;;9.65;;
60038;SDS011;45916;52.734;6.544;2024-03-22T14:25:10;14.82;;;9.32;;
60038;SDS011;45916;52.734;6.544;2024-03-22T14:27:36;17.48;;;9.43;;
60038;SDS011;45916;52.734;6.544;2024-03-22T14:30:03;15.93;;;10.10;;
60038;SDS011;45916;52.734;6.544;2024-03-22T14:32:34;15.98;;;10.18;;
60038;SDS011;45916;52.734;6.544;2024-03-22T14:35:00;17.60;;;9.98;;
60038;SDS011;45916;52.734;6.544;2024-03-22T14:37:27;15.45;;;10.02;;
60038;SDS011;45916;52.734;6.544;2024-03-22T14:39:53;15.55;;;9.63;;
60038;SDS011;45916;52.734;6.544;2024-03-22T14:42:19;15.18;;;9.55;;
60038;SDS011;45916;52.734;6.544;2024-03-22T14:44:45;19.60;;;11.05;;
60038;SDS011;45916;52.734;6.544;2024-03-22T14:47:11;19.02;;;9.98;;
60038;SDS011;45916;52.734;6.544;2024-03-22T14:49:37;15.35;;;9.40;;
60038;SDS011;45916;52.734;6.544;2024-03-22T14:52:04;16.92;;;10.82;;
60038;SDS011;45916;52.734;6.544;2024-03-22T14:54:30;19.48;;;10.55;;
60038;SDS011;45916;52.734;6.544;2024-03-22T14:56:56;19.15;;;11.02;;
60038;SDS011;45916;52.734;6.544;2024-03-22T14:59:22;19.55;;;11.20;;
60038;SDS011;45916;52.734;6.544;2024-03-22T15:01:49;20.33;;;10.25;;
60038;SDS011;45916;52.734;6.544;2024-03-22T15:04:15;19.05;;;9.40;;
60038;SDS011;45916;52.734;6.544;2024-03-22T15:06:41;19.92;;;10.43;;
60038;SDS011;45916;52.734;6.544;2024-03-22T15:09:07;19.33;;;11.38;;
60038;SDS011;45916;52.734;6.544;2024-03-22T15:11:36;21.77;;;9.85;;
60038;SDS011;45916;52.734;6.544;2024-03-22T15:14:03;16.23;;;9.02;;
60038;SDS011;45916;52.734;6.544;2024-03-22T15:16:29;20.65;;;9.07;;
60038;SDS011;45916;52.734;6.544;2024-03-22T15:18:55;17.38;;;8.77;;
60038;SDS011;45916;52.734;6.544;2024-03-22T15:21:22;15.30;;;7.70;;
60038;SDS011;45916;52.734;6.544;2024-03-22T15:23:48;16.80;;;8.30;;
60038;SDS011;45916;52.734;6.544;2024-03-22T15:26:14;15.77;;;9.90;;
60038;SDS011;45916;52.734;6.544;2024-03-22T15:28:40;20.63;;;8.82;;
60038;SDS011;45916;52.734;6.544;2024-03-22T15:31:06;15.70;;;8.48;;
60038;SDS011;45916;52.734;6.544;2024-03-22T15:33:32;15.68;;;8.07;;
60038;SDS011;45916;52.734;6.544;2024-03-22T15:35:58;15.70;;;8.48;;
60038;SDS011;45916;52.734;6.544;2024-03-22T15:38:24;16.67;;;7.65;;
60038;SDS011;45916;52.734;6.544;2024-03-22T15:40:50;12.88;;;6.22;;
60038;SDS011;45916;52.734;6.544;2024-03-22T15:43:17;13.80;;;6.65;;
60038;SDS011;45916;52.734;6.544;2024-03-22T15:45:43;12.40;;;6.20;;
60038;SDS011;45916;52.734;6.544;2024-03-22T15:48:09;14.63;;;5.90;;
60038;SDS011;45916;52.734;6.544;2024-03-22T15:50:35;10.77;;;5.13;;
60038;SDS011;45916;52.734;6.544;2024-03-22T15:53:02;13.70;;;5.15;;
60038;SDS011;45916;52.734;6.544;2024-03-22T15:55:28;13.35;;;5.45;;
60038;SDS011;45916;52.734;6.544;2024-03-22T15:57:54;12.75;;;5.63;;
60038;SDS011;45916;52.734;6.544;2024-03-22T16:00:30;11.80;;;4.85;;
60038;SDS011;45916;52.734;6.544;2024-03-22T16:02:57;13.40;;;5.93;;
60038;SDS011;45916;52.734;6.544;2024-03-22T16:05:23;13.13;;;5.07;;
60038;SDS011;45916;52.734;6.544;2024-03-22T16:07:49;14.40;;;5.00;;
60038;SDS011;45916;52.734;6.544;2024-03-22T16:10:15;15.90;;;5.60;;
60038;SDS011;45916;52.734;6.544;2024-03-22T16:12:42;14.52;;;5.18;;
60038;SDS011;45916;52.734;6.544;2024-03-22T16:15:08;12.25;;;5.40;;
60038;SDS011;45916;52.734;6.544;2024-03-22T16:17:34;14.27;;;5.72;;
60038;SDS011;45916;52.734;6.544;2024-03-22T16:20:00;13.27;;;5.78;;
60038;SDS011;45916;52.734;6.544;2024-03-22T16:22:27;11.57;;;5.00;;
60038;SDS011;45916;52.734;6.544;2024-03-22T16:24:53;16.60;;;5.90;;
60038;SDS011;45916;52.734;6.544;2024-03-22T16:27:20;17.63;;;5.30;;
60038;SDS011;45916;52.734;6.544;2024-03-22T16:29:49;11.65;;;5.20;;
60038;SDS011;45916;52.734;6.544;2024-03-22T16:32:15;14.52;;;5.68;;
60038;SDS011;45916;52.734;6.544;2024-03-22T16:34:41;15.73;;;5.57;;
60038;SDS011;45916;52.734;6.544;2024-03-22T16:37:07;13.13;;;5.65;;
60038;SDS011;45916;52.734;6.544;2024-03-22T16:39:33;15.30;;;6.03;;
60038;SDS011;45916;52.734;6.544;2024-03-22T16:41:59;14.95;;;6.10;;
60038;SDS011;45916;52.734;6.544;2024-03-22T16:44:26;15.65;;;6.30;;
60038;SDS011;45916;52.734;6.544;2024-03-22T16:46:52;15.63;;;6.00;;
60038;SDS011;45916;52.734;6.544;2024-03-22T16:49:18;20.10;;;6.97;;
60038;SDS011;45916;52.734;6.544;2024-03-22T16:51:44;16.60;;;7.00;;
60038;SDS011;45916;52.734;6.544;2024-03-22T16:54:10;20.15;;;6.63;;
60038;SDS011;45916;52.734;6.544;2024-03-22T16:56:36;17.98;;;7.53;;
60038;SDS011;45916;52.734;6.544;2024-03-22T16:59:02;16.10;;;7.28;;
60038;SDS011;45916;52.734;6.544;2024-03-22T17:01:28;24.05;;;8.13;;
60038;SDS011;45916;52.734;6.544;2024-03-22T17:03:55;19.95;;;8.25;;
60038;SDS011;45916;52.734;6.544;2024-03-22T17:06:21;22.92;;;7.53;;
60038;SDS011;45916;52.734;6.544;2024-03-22T17:08:47;21.77;;;7.43;;
60038;SDS011;45916;52.734;6.544;2024-03-22T17:11:13;17.67;;;7.28;;
60038;SDS011;45916;52.734;6.544;2024-03-22T17:13:39;18.90;;;7.60;;
60038;SDS011;45916;52.734;6.544;2024-03-22T17:16:05;21.45;;;7.72;;
60038;SDS011;45916;52.734;6.544;2024-03-22T17:18:32;19.33;;;8.10;;
60038;SDS011;45916;52.734;6.544;2024-03-22T17:21:01;22.05;;;8.20;;
60038;SDS011;45916;52.734;6.544;2024-03-22T17:23:27;25.08;;;8.85;;
60038;SDS011;45916;52.734;6.544;2024-03-22T17:26:00;18.85;;;7.78;;
60038;SDS011;45916;52.734;6.544;2024-03-22T17:28:26;22.88;;;7.95;;
60038;SDS011;45916;52.734;6.544;2024-03-22T17:30:52;20.00;;;7.75;;
60038;SDS011;45916;52.734;6.544;2024-03-22T17:33:18;22.83;;;7.43;;
60038;SDS011;45916;52.734;6.544;2024-03-22T17:35:44;20.40;;;6.90;;
60038;SDS011;45916;52.734;6.544;2024-03-22T17:38:10;20.20;;;8.13;;
60038;SDS011;45916;52.734;6.544;2024-03-22T17:40:36;24.83;;;8.35;;
60038;SDS011;45916;52.734;6.544;2024-03-22T17:43:03;21.65;;;8.07;;
60038;SDS011;45916;52.734;6.544;2024-03-22T17:45:29;23.65;;;7.72;;
60038;SDS011;45916;52.734;6.544;2024-03-22T17:47:56;22.05;;;8.05;;
60038;SDS011;45916;52.734;6.544;2024-03-22T17:50:22;20.05;;;8.05;;
60038;SDS011;45916;52.734;6.544;2024-03-22T17:52:48;24.02;;;8.02;;
60038;SDS011;45916;52.734;6.544;2024-03-22T17:55:14;17.45;;;7.28;;
60038;SDS011;45916;52.734;6.544;2024-03-22T17:57:41;23.50;;;7.22;;
60038;SDS011;45916;52.734;6.544;2024-03-22T18:00:07;21.17;;;7.05;;
60038;SDS011;45916;52.734;6.544;2024-03-22T18:02:34;20.08;;;7.80;;
60038;SDS011;45916;52.734;6.544;2024-03-22T18:05:00;24.35;;;8.02;;
60038;SDS011;45916;52.734;6.544;2024-03-22T18:07:26;22.95;;;8.95;;
60038;SDS011;45916;52.734;6.544;2024-03-22T18:09:52;22.23;;;7.57;;
60038;SDS011;45916;52.734;6.544;2024-03-22T18:12:19;25.85;;;8.02;;
60038;SDS011;45916;52.734;6.544;2024-03-22T18:14:46;23.67;;;7.97;;
60038;SDS011;45916;52.734;6.544;2024-03-22T18:17:12;20.77;;;7.50;;
60038;SDS011;45916;52.734;6.544;2024-03-22T18:19:38;21.25;;;8.57;;
60038;SDS011;45916;52.734;6.544;2024-03-22T18:22:04;24.27;;;7.88;;
60038;SDS011;45916;52.734;6.544;2024-03-22T18:24:30;20.52;;;8.50;;
60038;SDS011;45916;52.734;6.544;2024-03-22T18:26:56;21.27;;;9.32;;
60038;SDS011;45916;52.734;6.544;2024-03-22T18:29:23;34.22;;;8.70;;
60038;SDS011;45916;52.734;6.544;2024-03-22T18:31:49;17.77;;;7.47;;
60038;SDS011;45916;52.734;6.544;2024-03-22T18:34:15;26.98;;;8.23;;
60038;SDS011;45916;52.734;6.544;2024-03-22T18:36:41;23.50;;;7.53;;
60038;SDS011;45916;52.734;6.544;2024-03-22T18:39:07;23.65;;;7.38;;
60038;SDS011;45916;52.734;6.544;2024-03-22T18:41:34;21.50;;;7.50;;
60038;SDS011;45916;52.734;6.544;2024-03-22T18:44:00;20.40;;;7.57;;
60038;SDS011;45916;52.734;6.544;2024-03-22T18:46:26;19.50;;;7.03;;
60038;SDS011;45916;52.734;6.544;2024-03-22T18:48:52;22.73;;;7.25;;
60038;SDS011;45916;52.734;6.544;2024-03-22T18:51:20;22.80;;;8.10;;
60038;SDS011;45916;52.734;6.544;2024-03-22T18:53:46;18.35;;;7.35;;
60038;SDS011;45916;52.734;6.544;2024-03-22T18:56:12;25.50;;;7.00;;
60038;SDS011;45916;52.734;6.544;2024-03-22T18:58:38;23.67;;;7.60;;
60038;SDS011;45916;52.734;6.544;2024-03-22T19:01:04;26.77;;;9.48;;
60038;SDS011;45916;52.734;6.544;2024-03-22T19:03:30;21.48;;;8.07;;
60038;SDS011;45916;52.734;6.544;2024-03-22T19:05:57;17.13;;;7.78;;
60038;SDS011;45916;52.734;6.544;2024-03-22T19:08:23;24.02;;;7.47;;
60038;SDS011;45916;52.734;6.544;2024-03-22T19:10:49;22.05;;;9.35;;
60038;SDS011;45916;52.734;6.544;2024-03-22T19:13:15;19.52;;;9.15;;
60038;SDS011;45916;52.734;6.544;2024-03-22T19:15:42;24.88;;;9.60;;
60038;SDS011;45916;52.734;6.544;2024-03-22T19:18:10;22.27;;;9.02;;
60038;SDS011;45916;52.734;6.544;2024-03-22T19:20:37;26.77;;;9.05;;
60038;SDS011;45916;52.734;6.544;2024-03-22T19:23:03;27.50;;;9.10;;
60038;SDS011;45916;52.734;6.544;2024-03-22T19:25:30;21.75;;;8.43;;
60038;SDS011;45916;52.734;6.544;2024-03-22T19:27:56;28.67;;;10.23;;
60038;SDS011;45916;52.734;6.544;2024-03-22T19:30:22;22.67;;;7.72;;
60038;SDS011;45916;52.734;6.544;2024-03-22T19:32:48;23.17;;;7.63;;
60038;SDS011;45916;52.734;6.544;2024-03-22T19:35:14;25.05;;;8.32;;
60038;SDS011;45916;52.734;6.544;2024-03-22T19:37:41;25.10;;;8.15;;
60038;SDS011;45916;52.734;6.544;2024-03-22T19:40:07;22.83;;;7.97;;
60038;SDS011;45916;52.734;6.544;2024-03-22T19:42:33;22.83;;;7.95;;
60038;SDS011;45916;52.734;6.544;2024-03-22T19:45:00;20.42;;;7.78;;
60038;SDS011;45916;52.734;6.544;2024-03-22T19:47:26;23.58;;;8.95;;
60038;SDS011;45916;52.734;6.544;2024-03-22T19:49:52;22.90;;;8.27;;
60038;SDS011;45916;52.734;6.544;2024-03-22T19:52:18;25.38;;;9.52;;
60038;SDS011;45916;52.734;6.544;2024-03-22T19:54:44;23.48;;;8.45;;
60038;SDS011;45916;52.734;6.544;2024-03-22T19:57:10;18.60;;;8.57;;
60038;SDS011;45916;52.734;6.544;2024-03-22T19:59:38;19.75;;;8.00;;
60038;SDS011;45916;52.734;6.544;2024-03-22T20:02:04;22.40;;;8.73;;
60038;SDS011;45916;52.734;6.544;2024-03-22T20:04:31;21.40;;;7.50;;
60038;SDS011;45916;52.734;6.544;2024-03-22T20:06:57;20.48;;;7.68;;
60038;SDS011;45916;52.734;6.544;2024-03-22T20:09:23;25.90;;;8.82;;
60038;SDS011;45916;52.734;6.544;2024-03-22T20:11:49;20.15;;;7.70;;
60038;SDS011;45916;52.734;6.544;2024-03-22T20:14:15;26.17;;;8.57;;
60038;SDS011;45916;52.734;6.544;2024-03-22T20:16:41;24.63;;;8.13;;
60038;SDS011;45916;52.734;6.544;2024-03-22T20:19:08;26.65;;;8.80;;
60038;SDS011;45916;52.734;6.544;2024-03-22T20:21:34;25.60;;;8.60;;
60038;SDS011;45916;52.734;6.544;2024-03-22T20:24:00;21.88;;;8.05;;
60038;SDS011;45916;52.734;6.544;2024-03-22T20:26:27;27.95;;;7.68;;
60038;SDS011;45916;52.734;6.544;2024-03-22T20:28:53;26.05;;;8.88;;
60038;SDS011;45916;52.734;6.544;2024-03-22T20:31:21;25.52;;;8.93;;
60038;SDS011;45916;52.734;6.544;2024-03-22T20:33:48;21.92;;;8.43;;
60038;SDS011;45916;52.734;6.544;2024-03-22T20:36:14;32.22;;;9.68;;
